sensor_id;sensor_type;location;lat;lon;timestamp;P1;P2;P0
82821;PMS5003;72574;46.842;-71.246;2024-03-02T00:01:51;21.5;16.7;8.95
82821;PMS5003;72574;46.842;-71.246;2024-03-02T00:04:17;21.25;18.35;10.85
82821;PMS5003;72574;46.842;-71.246;2024-03-02T00:06:43;30.39;20.83;13.5
82821;PMS5003;72574;46.842;-71.246;2024-03-02T00:09:07;25.9;19.05;10.75
82821;PMS5003;72574;46.842;-71.246;2024-03-02T00:11:34;14.65;13.6;10.55
82821;PMS5003;72574;46.842;-71.246;2024-03-02T00:13:58;18.65;15.9;10.35
82821;PMS5003;72574;46.842;-71.246;2024-03-02T00:16:28;21.05;19.57;14.38
82821;PMS5003;72574;46.842;-71.246;2024-03-02T00:18:49;15.25;13.8;10.65
82821;PMS5003;72574;46.842;-71.246;2024-03-02T00:21:15;17.35;16.9;12.7
82821;PMS5003;72574;46.842;-71.246;2024-03-02T00:23:40;17.75;14.85;10.8
82821;PMS5003;72574;46.842;-71.246;2024-03-02T00:26:05;21.55;19.1;13.3
82821;PMS5003;72574;46.842;-71.246;2024-03-02T00:28:33;21.6;20.9;13.95
82821;PMS5003;72574;46.842;-71.246;2024-03-02T00:30:59;30.15;25.25;16.15
82821;PMS5003;72574;46.842;-71.246;2024-03-02T00:33:23;22.33;19.67;13.81
82821;PMS5003;72574;46.842;-71.246;2024-03-02T00:35:49;29.45;22.9;14.45
82821;PMS5003;72574;46.842;-71.246;2024-03-02T00:38:14;21.75;20.25;13.55
82821;PMS5003;72574;46.842;-71.246;2024-03-02T00:40:39;31.55;21.25;12.85
82821;PMS5003;72574;46.842;-71.246;2024-03-02T00:43:05;27.6;25.5;16.6
82821;PMS5003;72574;46.842;-71.246;2024-03-02T00:45:31;27.6;26.05;14.15
82821;PMS5003;72574;46.842;-71.246;2024-03-02T00:47:56;29.61;21.28;12.17
82821;PMS5003;72574;46.842;-71.246;2024-03-02T00:50:22;19.52;16.48;10.71
82821;PMS5003;72574;46.842;-71.246;2024-03-02T00:52:47;23;20.7;13.45
82821;PMS5003;72574;46.842;-71.246;2024-03-02T00:55:12;29.81;19.1;11.33
82821;PMS5003;72574;46.842;-71.246;2024-03-02T00:57:39;38.06;28.56;13.78
82821;PMS5003;72574;46.842;-71.246;2024-03-02T01:00:06;44.1;28.52;15.38
82821;PMS5003;72574;46.842;-71.246;2024-03-02T01:02:31;21.45;21.1;11.55
82821;PMS5003;72574;46.842;-71.246;2024-03-02T01:04:56;20.45;19.45;11.1
82821;PMS5003;72574;46.842;-71.246;2024-03-02T01:07:22;20.71;19.76;12.86
82821;PMS5003;72574;46.842;-71.246;2024-03-02T01:09:48;18.25;18.05;10.9
82821;PMS5003;72574;46.842;-71.246;2024-03-02T01:12:15;20.45;17.55;11.2
82821;PMS5003;72574;46.842;-71.246;2024-03-02T01:14:39;30.85;21.9;11.8
82821;PMS5003;72574;46.842;-71.246;2024-03-02T01:17:05;22.3;17.75;10.65
82821;PMS5003;72574;46.842;-71.246;2024-03-02T01:19:31;17.65;14.95;10.45
82821;PMS5003;72574;46.842;-71.246;2024-03-02T01:21:54;30.9;20.81;11.24
82821;PMS5003;72574;46.842;-71.246;2024-03-02T01:24:20;20.24;18.05;12.05
82821;PMS5003;72574;46.842;-71.246;2024-03-02T01:26:47;18.3;16.05;10.1
82821;PMS5003;72574;46.842;-71.246;2024-03-02T01:29:13;25.33;19.72;11.67
82821;PMS5003;72574;46.842;-71.246;2024-03-02T01:31:39;25.35;20.6;10.5
82821;PMS5003;72574;46.842;-71.246;2024-03-02T01:34:02;20;19.55;10.7
82821;PMS5003;72574;46.842;-71.246;2024-03-02T01:36:29;19.55;16.45;10.35
82821;PMS5003;72574;46.842;-71.246;2024-03-02T01:38:55;15.45;14.1;8.9
82821;PMS5003;72574;46.842;-71.246;2024-03-02T01:41:20;30.18;21.95;15.68
82821;PMS5003;72574;46.842;-71.246;2024-03-02T01:43:46;29.38;25.62;14.24
82821;PMS5003;72574;46.842;-71.246;2024-03-02T01:46:12;19.35;16.1;10.05
82821;PMS5003;72574;46.842;-71.246;2024-03-02T01:48:35;24.05;23.35;14.4
82821;PMS5003;72574;46.842;-71.246;2024-03-02T01:51:01;35.65;25.1;14.15
82821;PMS5003;72574;46.842;-71.246;2024-03-02T01:53:28;21.75;18.2;11.7
82821;PMS5003;72574;46.842;-71.246;2024-03-02T01:55:54;35.81;26.1;14.33
82821;PMS5003;72574;46.842;-71.246;2024-03-02T01:58:21;21.38;20.52;16.19
82821;PMS5003;72574;46.842;-71.246;2024-03-02T02:00:45;36.47;33.84;26.84
82821;PMS5003;72574;46.842;-71.246;2024-03-02T02:03:10;29.57;18.81;13.81
82821;PMS5003;72574;46.842;-71.246;2024-03-02T02:05:37;24.95;21.25;15.75
82821;PMS5003;72574;46.842;-71.246;2024-03-02T02:08:00;27.8;25.7;18.15
82821;PMS5003;72574;46.842;-71.246;2024-03-02T02:10:27;34.75;32.45;22.1
82821;PMS5003;72574;46.842;-71.246;2024-03-02T02:12:51;33.11;27.58;20.21
82821;PMS5003;72574;46.842;-71.246;2024-03-02T02:15:21;34.74;26.68;17.42
82821;PMS5003;72574;46.842;-71.246;2024-03-02T02:17:46;33.83;25.39;17.89
82821;PMS5003;72574;46.842;-71.246;2024-03-02T02:20:12;24.95;22.71;16.19
82821;PMS5003;72574;46.842;-71.246;2024-03-02T02:22:38;22.2;21.4;15.5
82821;PMS5003;72574;46.842;-71.246;2024-03-02T02:25:03;27;23.3;17.7
82821;PMS5003;72574;46.842;-71.246;2024-03-02T02:27:29;30.2;24;13.4
82821;PMS5003;72574;46.842;-71.246;2024-03-02T02:30:00;18.86;15.38;9.76
82821;PMS5003;72574;46.842;-71.246;2024-03-02T02:32:26;23.47;18.05;11.11
82821;PMS5003;72574;46.842;-71.246;2024-03-02T02:34:52;22;19.85;13.3
82821;PMS5003;72574;46.842;-71.246;2024-03-02T02:37:18;35.21;26.37;20.89
82821;PMS5003;72574;46.842;-71.246;2024-03-02T02:39:43;35.5;34.15;26.85
82821;PMS5003;72574;46.842;-71.246;2024-03-02T02:42:09;18.14;14.29;9.33
82821;PMS5003;72574;46.842;-71.246;2024-03-02T02:44:32;21.45;16.9;10.7
82821;PMS5003;72574;46.842;-71.246;2024-03-02T02:47:02;17.62;15.95;10.62
82821;PMS5003;72574;46.842;-71.246;2024-03-02T02:49:28;18.48;16.71;9.71
82821;PMS5003;72574;46.842;-71.246;2024-03-02T02:51:53;20.6;18.4;10.3
82821;PMS5003;72574;46.842;-71.246;2024-03-02T02:54:18;18.2;14.7;8.8
82821;PMS5003;72574;46.842;-71.246;2024-03-02T02:56:45;25.45;19.9;9.5
82821;PMS5003;72574;46.842;-71.246;2024-03-02T02:59:09;26.45;20.45;10.4
82821;PMS5003;72574;46.842;-71.246;2024-03-02T03:01:36;18;15.2;10.8
82821;PMS5003;72574;46.842;-71.246;2024-03-02T03:04:02;27.48;17.67;11
82821;PMS5003;72574;46.842;-71.246;2024-03-02T03:06:28;25.55;19.3;11.75
82821;PMS5003;72574;46.842;-71.246;2024-03-02T03:08:52;24.67;19.78;11.44
82821;PMS5003;72574;46.842;-71.246;2024-03-02T03:11:18;24.85;19.85;11.2
82821;PMS5003;72574;46.842;-71.246;2024-03-02T03:13:44;26.95;22.35;13.4
82821;PMS5003;72574;46.842;-71.246;2024-03-02T03:16:09;25.1;23.1;13.25
82821;PMS5003;72574;46.842;-71.246;2024-03-02T03:18:32;30.55;23.15;12.9
82821;PMS5003;72574;46.842;-71.246;2024-03-02T03:21:02;27.48;21.71;12.62
82821;PMS5003;72574;46.842;-71.246;2024-03-02T03:23:28;28.9;24.2;13.2
82821;PMS5003;72574;46.842;-71.246;2024-03-02T03:25:54;23.45;20.45;12.8
82821;PMS5003;72574;46.842;-71.246;2024-03-02T03:28:21;30.65;21.55;11.45
82821;PMS5003;72574;46.842;-71.246;2024-03-02T03:30:47;24.48;18.76;11.67
82821;PMS5003;72574;46.842;-71.246;2024-03-02T03:33:12;24.15;17.75;12.6
82821;PMS5003;72574;46.842;-71.246;2024-03-02T03:35:39;23.45;19.1;11
82821;PMS5003;72574;46.842;-71.246;2024-03-02T03:38:05;43.19;23.19;13.95
82821;PMS5003;72574;46.842;-71.246;2024-03-02T03:40:28;26.45;23.75;13.4
82821;PMS5003;72574;46.842;-71.246;2024-03-02T03:42:55;28.67;24.43;15.52
82821;PMS5003;72574;46.842;-71.246;2024-03-02T03:45:19;28;25.19;15.67
82821;PMS5003;72574;46.842;-71.246;2024-03-02T03:47:46;35.95;25;13.95
82821;PMS5003;72574;46.842;-71.246;2024-03-02T03:50:10;23.75;21.4;13.1
82821;PMS5003;72574;46.842;-71.246;2024-03-02T03:52:36;32;25.1;16.25
82821;PMS5003;72574;46.842;-71.246;2024-03-02T03:55:04;25.57;22.33;12.9
82821;PMS5003;72574;46.842;-71.246;2024-03-02T03:57:30;25.55;23.3;13.4
82821;PMS5003;72574;46.842;-71.246;2024-03-02T03:59:54;29.81;26.67;15.38
82821;PMS5003;72574;46.842;-71.246;2024-03-02T04:02:20;28.81;26;15.24
82821;PMS5003;72574;46.842;-71.246;2024-03-02T04:04:46;26.57;25.24;15.86
82821;PMS5003;72574;46.842;-71.246;2024-03-02T04:07:09;28.52;24.38;14.9
82821;PMS5003;72574;46.842;-71.246;2024-03-02T04:09:36;34.6;23.75;14.6
82821;PMS5003;72574;46.842;-71.246;2024-03-02T04:12:04;26.09;24.55;15.18
82821;PMS5003;72574;46.842;-71.246;2024-03-02T04:14:28;38.9;26.65;14.5
82821;PMS5003;72574;46.842;-71.246;2024-03-02T04:16:53;41.14;31.62;18.71
82821;PMS5003;72574;46.842;-71.246;2024-03-02T04:19:19;49.2;37.7;20
82821;PMS5003;72574;46.842;-71.246;2024-03-02T04:21:45;49.22;36.72;20.67
82821;PMS5003;72574;46.842;-71.246;2024-03-02T04:24:10;47.86;37.95;23.43
82821;PMS5003;72574;46.842;-71.246;2024-03-02T04:26:34;54.47;41.63;23.11
82821;PMS5003;72574;46.842;-71.246;2024-03-02T04:29:00;50.67;39.14;21.33
82821;PMS5003;72574;46.842;-71.246;2024-03-02T04:31:27;42.19;34.62;19.95
82821;PMS5003;72574;46.842;-71.246;2024-03-02T04:33:57;64.5;40.17;21.83
82821;PMS5003;72574;46.842;-71.246;2024-03-02T04:36:20;45.71;41.1;22.14
82821;PMS5003;72574;46.842;-71.246;2024-03-02T04:38:47;56.11;42.22;23.83
82821;PMS5003;72574;46.842;-71.246;2024-03-02T04:41:11;64.25;43.95;25.05
82821;PMS5003;72574;46.842;-71.246;2024-03-02T04:43:38;65.95;44.15;23.6
82821;PMS5003;72574;46.842;-71.246;2024-03-02T04:46:04;56.9;43.05;24.1
82821;PMS5003;72574;46.842;-71.246;2024-03-02T04:48:29;59.3;45.1;24.5
82821;PMS5003;72574;46.842;-71.246;2024-03-02T04:50:54;54.67;40.86;23.1
82821;PMS5003;72574;46.842;-71.246;2024-03-02T04:53:21;48.35;42.5;26.2
82821;PMS5003;72574;46.842;-71.246;2024-03-02T04:56:28;71.21;49.42;30.16
82821;PMS5003;72574;46.842;-71.246;2024-03-02T04:58:10;56.25;46.6;27.2
82821;PMS5003;72574;46.842;-71.246;2024-03-02T05:00:35;65.39;48.44;28
82821;PMS5003;72574;46.842;-71.246;2024-03-02T05:03:01;71;51.48;32.67
82821;PMS5003;72574;46.842;-71.246;2024-03-02T05:05:28;62.85;49.6;31.05
82821;PMS5003;72574;46.842;-71.246;2024-03-02T05:07:52;98.85;69.5;40.8
82821;PMS5003;72574;46.842;-71.246;2024-03-02T05:10:18;79.85;58.1;34.95
82821;PMS5003;72574;46.842;-71.246;2024-03-02T05:12:57;73.05;54.84;32.58
82821;PMS5003;72574;46.842;-71.246;2024-03-02T05:15:11;85.1;63.5;38.9
82821;PMS5003;72574;46.842;-71.246;2024-03-02T05:17:34;87.7;66.8;39.25
82821;PMS5003;72574;46.842;-71.246;2024-03-02T05:20:00;79.57;58.05;33.67
82821;PMS5003;72574;46.842;-71.246;2024-03-02T05:22:27;84.68;59.89;34.53
82821;PMS5003;72574;46.842;-71.246;2024-03-02T05:24:53;71.84;58.16;37
82821;PMS5003;72574;46.842;-71.246;2024-03-02T05:27:16;74.74;57.05;33.63
82821;PMS5003;72574;46.842;-71.246;2024-03-02T05:29:43;81.89;59.26;33.47
82821;PMS5003;72574;46.842;-71.246;2024-03-02T05:32:07;83.35;59.1;36.2
82821;PMS5003;72574;46.842;-71.246;2024-03-02T05:34:31;75.75;58.45;35.7
82821;PMS5003;72574;46.842;-71.246;2024-03-02T05:37:00;92.57;68.05;39.1
82821;PMS5003;72574;46.842;-71.246;2024-03-02T05:39:25;142.67;106.22;51.72
82821;PMS5003;72574;46.842;-71.246;2024-03-02T05:41:50;99.65;75.1;42.95
82821;PMS5003;72574;46.842;-71.246;2024-03-02T05:44:17;89.65;62.75;35.8
82821;PMS5003;72574;46.842;-71.246;2024-03-02T05:46:41;69.5;49.9;30.5
82821;PMS5003;72574;46.842;-71.246;2024-03-02T05:49:05;66.11;51.89;32.26
82821;PMS5003;72574;46.842;-71.246;2024-03-02T05:51:30;74.1;55.2;31.2
82821;PMS5003;72574;46.842;-71.246;2024-03-02T05:53:57;64.71;50.38;30.48
82821;PMS5003;72574;46.842;-71.246;2024-03-02T05:56:23;75.2;57.65;36.45
82821;PMS5003;72574;46.842;-71.246;2024-03-02T05:58:51;108.47;76;47.84
82821;PMS5003;72574;46.842;-71.246;2024-03-02T06:01:15;89;67.26;38.84
82821;PMS5003;72574;46.842;-71.246;2024-03-02T06:03:39;74.1;56.5;33.1
82821;PMS5003;72574;46.842;-71.246;2024-03-02T06:06:04;81.8;56.75;34.35
82821;PMS5003;72574;46.842;-71.246;2024-03-02T06:08:31;81.6;62.25;35.05
82821;PMS5003;72574;46.842;-71.246;2024-03-02T06:10:58;96.25;67.85;40.9
82821;PMS5003;72574;46.842;-71.246;2024-03-02T06:13:21;73.75;57.05;34.7
82821;PMS5003;72574;46.842;-71.246;2024-03-02T06:15:48;74.6;54.15;33.95
82821;PMS5003;72574;46.842;-71.246;2024-03-02T06:18:14;62.45;49.45;29.25
82821;PMS5003;72574;46.842;-71.246;2024-03-02T06:20:38;61.8;48.2;25.9
82821;PMS5003;72574;46.842;-71.246;2024-03-02T06:23:04;80.1;55.9;33.6
82821;PMS5003;72574;46.842;-71.246;2024-03-02T06:25:28;79.55;59.6;33.85
82821;PMS5003;72574;46.842;-71.246;2024-03-02T06:27:57;92.1;62.95;36.43
82821;PMS5003;72574;46.842;-71.246;2024-03-02T06:30:21;73.32;57.53;35.32
82821;PMS5003;72574;46.842;-71.246;2024-03-02T06:32:47;71.32;53.42;31.68
82821;PMS5003;72574;46.842;-71.246;2024-03-02T06:35:10;65.05;49.79;31.68
82821;PMS5003;72574;46.842;-71.246;2024-03-02T06:37:35;74.25;53.1;32.9
82821;PMS5003;72574;46.842;-71.246;2024-03-02T06:40:01;77.7;54.2;32.65
82821;PMS5003;72574;46.842;-71.246;2024-03-02T06:42:28;68.5;53.3;33
82821;PMS5003;72574;46.842;-71.246;2024-03-02T06:44:52;96.25;62.55;35.8
82821;PMS5003;72574;46.842;-71.246;2024-03-02T06:47:19;82.3;62.3;34.95
82821;PMS5003;72574;46.842;-71.246;2024-03-02T06:49:44;90.48;59.38;33.62
82821;PMS5003;72574;46.842;-71.246;2024-03-02T06:52:11;81.84;58.42;33.37
82821;PMS5003;72574;46.842;-71.246;2024-03-02T06:54:37;88.35;62.1;36.55
82821;PMS5003;72574;46.842;-71.246;2024-03-02T06:57:02;83.3;58.95;34.8
82821;PMS5003;72574;46.842;-71.246;2024-03-02T06:59:26;85.55;60.2;34.75
82821;PMS5003;72574;46.842;-71.246;2024-03-02T07:01:52;93.4;66.1;36.6
82821;PMS5003;72574;46.842;-71.246;2024-03-02T07:04:19;91.85;64.05;36.05
82821;PMS5003;72574;46.842;-71.246;2024-03-02T07:06:44;76.84;59.53;34.32
82821;PMS5003;72574;46.842;-71.246;2024-03-02T07:09:08;66.84;52.79;31.37
82821;PMS5003;72574;46.842;-71.246;2024-03-02T07:11:33;77.65;53.65;30.15
82821;PMS5003;72574;46.842;-71.246;2024-03-02T07:14:00;70.45;48.8;28.35
82821;PMS5003;72574;46.842;-71.246;2024-03-02T07:16:30;65.05;49.35;28.05
82821;PMS5003;72574;46.842;-71.246;2024-03-02T07:18:50;75.24;50.9;29.71
82821;PMS5003;72574;46.842;-71.246;2024-03-02T07:21:17;70.26;49.79;29.16
82821;PMS5003;72574;46.842;-71.246;2024-03-02T07:23:43;60.55;47.6;27.05
82821;PMS5003;72574;46.842;-71.246;2024-03-02T07:26:07;73.8;53.05;31
82821;PMS5003;72574;46.842;-71.246;2024-03-02T07:28:34;60.2;49.9;31.55
82821;PMS5003;72574;46.842;-71.246;2024-03-02T07:30:57;62.25;49.6;29.2
82821;PMS5003;72574;46.842;-71.246;2024-03-02T07:33:24;69.6;48.75;30.05
82821;PMS5003;72574;46.842;-71.246;2024-03-02T07:35:50;58.29;45.43;24.86
82821;PMS5003;72574;46.842;-71.246;2024-03-02T07:38:14;65.4;49.45;30
82821;PMS5003;72574;46.842;-71.246;2024-03-02T07:40:42;74.75;49.6;30.3
82821;PMS5003;72574;46.842;-71.246;2024-03-02T07:43:05;52.8;46.35;28.7
82821;PMS5003;72574;46.842;-71.246;2024-03-02T07:45:31;75.2;54.9;31.1
82821;PMS5003;72574;46.842;-71.246;2024-03-02T07:47:57;57.9;49.2;30
82821;PMS5003;72574;46.842;-71.246;2024-03-02T07:50:22;66.17;49.39;30.89
82821;PMS5003;72574;46.842;-71.246;2024-03-02T07:52:49;67.81;49;28.1
82821;PMS5003;72574;46.842;-71.246;2024-03-02T07:55:14;61.6;46.15;28.1
82821;PMS5003;72574;46.842;-71.246;2024-03-02T07:57:37;58.35;48.5;30.5
82821;PMS5003;72574;46.842;-71.246;2024-03-02T08:00:05;68.1;50.6;30.05
82821;PMS5003;72574;46.842;-71.246;2024-03-02T08:02:29;62.86;49.19;26.57
82821;PMS5003;72574;46.842;-71.246;2024-03-02T08:04:56;56.42;45;27.26
82821;PMS5003;72574;46.842;-71.246;2024-03-02T08:07:22;76.1;53.7;30.65
82821;PMS5003;72574;46.842;-71.246;2024-03-02T08:09:48;72.1;50.5;29.15
82821;PMS5003;72574;46.842;-71.246;2024-03-02T08:12:13;79.63;52.42;32.05
82821;PMS5003;72574;46.842;-71.246;2024-03-02T08:14:39;73.9;53.3;30.45
82821;PMS5003;72574;46.842;-71.246;2024-03-02T08:17:03;63.6;48.4;30.15
82821;PMS5003;72574;46.842;-71.246;2024-03-02T08:19:28;60.89;46.58;29.89
82821;PMS5003;72574;46.842;-71.246;2024-03-02T08:21:55;68.6;49.65;29.35
82821;PMS5003;72574;46.842;-71.246;2024-03-02T08:24:20;71.65;48.9;29.55
82821;PMS5003;72574;46.842;-71.246;2024-03-02T08:26:45;59.35;44.7;27.3
82821;PMS5003;72574;46.842;-71.246;2024-03-02T08:29:11;60.32;47.05;25.68
82821;PMS5003;72574;46.842;-71.246;2024-03-02T08:31:38;65.2;47.45;27.8
82821;PMS5003;72574;46.842;-71.246;2024-03-02T08:34:01;53.47;45.58;28
82821;PMS5003;72574;46.842;-71.246;2024-03-02T08:36:28;70.8;52.05;31.95
82821;PMS5003;72574;46.842;-71.246;2024-03-02T08:38:54;69;48.85;28.8
82821;PMS5003;72574;46.842;-71.246;2024-03-02T08:41:18;64.5;50.25;29.2
82821;PMS5003;72574;46.842;-71.246;2024-03-02T08:43:47;70.38;52.14;31.43
82821;PMS5003;72574;46.842;-71.246;2024-03-02T08:46:10;65.52;46.52;28.14
82821;PMS5003;72574;46.842;-71.246;2024-03-02T08:48:36;55.1;46.9;28.7
82821;PMS5003;72574;46.842;-71.246;2024-03-02T08:51:03;59.74;48.05;28.84
82821;PMS5003;72574;46.842;-71.246;2024-03-02T08:53:28;67.35;48.6;29.6
82821;PMS5003;72574;46.842;-71.246;2024-03-02T08:55:52;69.9;50.85;29.5
82821;PMS5003;72574;46.842;-71.246;2024-03-02T08:58:17;66.15;46.9;26.65
82821;PMS5003;72574;46.842;-71.246;2024-03-02T09:30:15;64.4;48.75;26.1
82821;PMS5003;72574;46.842;-71.246;2024-03-02T09:30:46;65.86;48.33;28.71
82821;PMS5003;72574;46.842;-71.246;2024-03-02T09:31:21;63.71;42.81;24.67
82821;PMS5003;72574;46.842;-71.246;2024-03-02T09:31:47;52.9;45.29;28.1
82821;PMS5003;72574;46.842;-71.246;2024-03-02T09:32:07;63.19;47.19;27.05
82821;PMS5003;72574;46.842;-71.246;2024-03-02T09:32:20;46.3;40.45;27.2
82821;PMS5003;72574;46.842;-71.246;2024-03-02T09:32:34;60.86;46.24;26.43
82821;PMS5003;72574;46.842;-71.246;2024-03-02T09:32:50;58.48;41.19;24.38
82821;PMS5003;72574;46.842;-71.246;2024-03-02T09:33:05;68.33;50.9;29.43
82821;PMS5003;72574;46.842;-71.246;2024-03-02T09:33:55;70.65;47.95;28.85
82821;PMS5003;72574;46.842;-71.246;2024-03-02T09:36:22;60.89;47.21;27.84
82821;PMS5003;72574;46.842;-71.246;2024-03-02T09:38:48;70.1;47.55;27.65
82821;PMS5003;72574;46.842;-71.246;2024-03-02T09:41:11;67.8;48.55;27.15
82821;PMS5003;72574;46.842;-71.246;2024-03-02T09:43:36;55.15;44.15;25.15
82821;PMS5003;72574;46.842;-71.246;2024-03-02T09:46:02;57.37;47.11;27.16
82821;PMS5003;72574;46.842;-71.246;2024-03-02T09:48:30;63.2;46.95;28.55
82821;PMS5003;72574;46.842;-71.246;2024-03-02T09:50:55;68.05;52.15;29.85
82821;PMS5003;72574;46.842;-71.246;2024-03-02T09:53:21;69.85;48.45;27.85
82821;PMS5003;72574;46.842;-71.246;2024-03-02T09:55:45;78.15;48.7;29.05
82821;PMS5003;72574;46.842;-71.246;2024-03-02T09:58:09;67.84;51.68;29.68
82821;PMS5003;72574;46.842;-71.246;2024-03-02T10:00:39;83.45;55.1;29.8
82821;PMS5003;72574;46.842;-71.246;2024-03-02T10:03:04;71.24;51.57;29.38
82821;PMS5003;72574;46.842;-71.246;2024-03-02T10:05:31;66.29;47.57;27.48
82821;PMS5003;72574;46.842;-71.246;2024-03-02T10:07:59;63.8;46.9;27
82821;PMS5003;72574;46.842;-71.246;2024-03-02T10:10:22;59.55;45;23.6
82821;PMS5003;72574;46.842;-71.246;2024-03-02T10:12:46;72.6;47.1;25.6
82821;PMS5003;72574;46.842;-71.246;2024-03-02T10:15:12;73.3;49.9;28.45
82821;PMS5003;72574;46.842;-71.246;2024-03-02T10:17:37;56.15;45.45;27.9
82821;PMS5003;72574;46.842;-71.246;2024-03-02T10:20:21;70.4;48.15;29.15
82821;PMS5003;72574;46.842;-71.246;2024-03-02T10:22:29;70.57;48.14;27.43
82821;PMS5003;72574;46.842;-71.246;2024-03-02T10:24:54;70.95;48.6;26.6
82821;PMS5003;72574;46.842;-71.246;2024-03-02T10:27:22;61.8;46.3;23.75
82821;PMS5003;72574;46.842;-71.246;2024-03-02T10:29:45;64.5;45.8;25.65
82821;PMS5003;72574;46.842;-71.246;2024-03-02T10:32:09;77.1;51.6;28.1
82821;PMS5003;72574;46.842;-71.246;2024-03-02T10:34:37;67.65;48.55;26.95
82821;PMS5003;72574;46.842;-71.246;2024-03-02T10:37:01;64.42;44.68;22.16
82821;PMS5003;72574;46.842;-71.246;2024-03-02T10:39:26;59;46.14;23.9
82821;PMS5003;72574;46.842;-71.246;2024-03-02T10:41:53;55.58;44.26;24.21
82821;PMS5003;72574;46.842;-71.246;2024-03-02T10:44:19;50.11;38.58;21.21
82821;PMS5003;72574;46.842;-71.246;2024-03-02T10:46:45;45.74;40.26;24
82821;PMS5003;72574;46.842;-71.246;2024-03-02T10:49:10;59.95;42.35;22.45
82821;PMS5003;72574;46.842;-71.246;2024-03-02T10:51:35;62;45.9;27.45
82821;PMS5003;72574;46.842;-71.246;2024-03-02T10:54:01;55.2;38.8;20.9
82821;PMS5003;72574;46.842;-71.246;2024-03-02T10:56:29;52.3;40.45;20.1
82821;PMS5003;72574;46.842;-71.246;2024-03-02T10:58:55;47.81;35.57;18.9
82821;PMS5003;72574;46.842;-71.246;2024-03-02T11:01:18;42.85;34.95;19.55
82821;PMS5003;72574;46.842;-71.246;2024-03-02T11:03:45;33.79;29;18.53
82821;PMS5003;72574;46.842;-71.246;2024-03-02T11:06:09;62.6;42.8;22.25
82821;PMS5003;72574;46.842;-71.246;2024-03-02T11:08:35;69.2;46.25;24.85
82821;PMS5003;72574;46.842;-71.246;2024-03-02T11:11:01;66.58;46.42;24.11
82821;PMS5003;72574;46.842;-71.246;2024-03-02T11:13:30;75.19;50.95;27.52
82821;PMS5003;72574;46.842;-71.246;2024-03-02T11:15:53;70.15;46.5;25.85
82821;PMS5003;72574;46.842;-71.246;2024-03-02T11:18:16;71.35;49.15;28.95
82821;PMS5003;72574;46.842;-71.246;2024-03-02T11:20:41;68.8;48.05;26.7
82821;PMS5003;72574;46.842;-71.246;2024-03-02T11:23:09;73.9;48.75;29.6
82821;PMS5003;72574;46.842;-71.246;2024-03-02T11:25:32;58.8;48.65;26.3
82821;PMS5003;72574;46.842;-71.246;2024-03-02T11:28:02;67.89;48.95;27.63
82821;PMS5003;72574;46.842;-71.246;2024-03-02T11:30:51;78;50.26;28.37
82821;PMS5003;72574;46.842;-71.246;2024-03-02T11:32:55;59.21;47.05;24.95
82821;PMS5003;72574;46.842;-71.246;2024-03-02T11:35:16;66.7;51.8;29.3
82821;PMS5003;72574;46.842;-71.246;2024-03-02T11:37:40;71.75;50.5;29.3
82821;PMS5003;72574;46.842;-71.246;2024-03-02T11:40:08;73.58;48.21;28.95
82821;PMS5003;72574;46.842;-71.246;2024-03-02T11:42:33;53.74;42.05;26.11
82821;PMS5003;72574;46.842;-71.246;2024-03-02T11:44:57;59.65;46.25;26.55
82821;PMS5003;72574;46.842;-71.246;2024-03-02T11:47:24;57.38;41.05;22.05
82821;PMS5003;72574;46.842;-71.246;2024-03-02T11:49:50;51.5;38.65;21.3
82821;PMS5003;72574;46.842;-71.246;2024-03-02T11:52:15;50.37;43.53;21.11
82821;PMS5003;72574;46.842;-71.246;2024-03-02T11:54:40;53.45;37.05;19.5
82821;PMS5003;72574;46.842;-71.246;2024-03-02T11:57:04;42.3;33.15;19
82821;PMS5003;72574;46.842;-71.246;2024-03-02T11:59:32;44.15;32.5;19.65
82821;PMS5003;72574;46.842;-71.246;2024-03-02T12:01:56;49.2;35.55;20.7
82821;PMS5003;72574;46.842;-71.246;2024-03-02T12:04:22;49.79;36.16;18.89
82821;PMS5003;72574;46.842;-71.246;2024-03-02T12:06:53;56.11;40.05;22.42
82821;PMS5003;72574;46.842;-71.246;2024-03-02T12:09:14;43.52;36.95;20.52
82821;PMS5003;72574;46.842;-71.246;2024-03-02T12:11:40;37.24;33;20.33
82821;PMS5003;72574;46.842;-71.246;2024-03-02T12:14:05;36.29;32.76;20.33
82821;PMS5003;72574;46.842;-71.246;2024-03-02T12:16:32;44.55;34.75;21.1
82821;PMS5003;72574;46.842;-71.246;2024-03-02T12:18:56;42.53;31.47;18.16
82821;PMS5003;72574;46.842;-71.246;2024-03-02T12:21:22;38.77;31.18;16.86
82821;PMS5003;72574;46.842;-71.246;2024-03-02T12:23:49;31.62;28.19;17.14
82821;PMS5003;72574;46.842;-71.246;2024-03-02T12:26:13;35.5;28.6;16.8
82821;PMS5003;72574;46.842;-71.246;2024-03-02T12:28:38;31.2;27.5;15.45
82821;PMS5003;72574;46.842;-71.246;2024-03-02T12:31:04;33.65;28.8;14.2
82821;PMS5003;72574;46.842;-71.246;2024-03-02T12:33:31;29.8;26.7;17.2
82821;PMS5003;72574;46.842;-71.246;2024-03-02T12:35:56;39.35;28.4;16.8
82821;PMS5003;72574;46.842;-71.246;2024-03-02T12:38:35;39.09;29.41;18.55
82821;PMS5003;72574;46.842;-71.246;2024-03-02T12:40:58;49.19;37.81;25.33
82821;PMS5003;72574;46.842;-71.246;2024-03-02T12:43:29;64.33;52.71;39.33
82821;PMS5003;72574;46.842;-71.246;2024-03-02T12:45:49;55.45;44.6;32.65
82821;PMS5003;72574;46.842;-71.246;2024-03-02T12:48:19;51.62;40.05;26.95
82821;PMS5003;72574;46.842;-71.246;2024-03-02T12:50:45;39.18;29.73;18.86
82821;PMS5003;72574;46.842;-71.246;2024-03-02T12:53:13;24.25;24.25;15.75
82821;PMS5003;72574;46.842;-71.246;2024-03-02T12:55:34;36.18;24.18;12.32
82821;PMS5003;72574;46.842;-71.246;2024-03-02T12:57:59;30.26;23.37;12.37
82821;PMS5003;72574;46.842;-71.246;2024-03-02T13:00:27;25.29;21.67;13.52
82821;PMS5003;72574;46.842;-71.246;2024-03-02T13:02:52;26.62;22.24;14.81
82821;PMS5003;72574;46.842;-71.246;2024-03-02T13:05:18;20.48;19.33;13.19
82821;PMS5003;72574;46.842;-71.246;2024-03-02T13:07:41;20.52;19.33;11.9
82821;PMS5003;72574;46.842;-71.246;2024-03-02T13:10:07;29.57;21.14;12.9
82821;PMS5003;72574;46.842;-71.246;2024-03-02T13:12:35;21.59;19.55;14.23
82821;PMS5003;72574;46.842;-71.246;2024-03-02T13:14:59;29.61;21.33;12.78
82821;PMS5003;72574;46.842;-71.246;2024-03-02T13:17:24;25.65;21.95;12.1
82821;PMS5003;72574;46.842;-71.246;2024-03-02T13:19:51;28.6;24.3;12.6
82821;PMS5003;72574;46.842;-71.246;2024-03-02T13:22:15;35.33;22.39;12.56
82821;PMS5003;72574;46.842;-71.246;2024-03-02T13:24:40;26.24;21.48;13.62
82821;PMS5003;72574;46.842;-71.246;2024-03-02T13:27:05;25.95;23.24;13.76
82821;PMS5003;72574;46.842;-71.246;2024-03-02T13:29:31;26;23.14;13.36
82821;PMS5003;72574;46.842;-71.246;2024-03-02T13:31:58;30.19;27.43;16.71
82821;PMS5003;72574;46.842;-71.246;2024-03-02T13:34:24;27.62;24.14;13.9
82821;PMS5003;72574;46.842;-71.246;2024-03-02T13:36:49;27.24;24.48;15.05
82821;PMS5003;72574;46.842;-71.246;2024-03-02T13:39:13;25.48;20.48;13.14